Time;durP1;ratioP1;P1;durP2;ratioP2;P2;SDS_P1;SDS_P2;PMS_P1;PMS_P2;Temp;Humidity;BMP_temperature;BMP_pressure;BME280_temperature;BME280_humidity;BME280_pressure;Samples;Min_cycle;Max_cycle;Signal;HPM_P1;HPM_P2
2022/04/23 00:02:42;;;;;;;4.25;2.72;;;;;;;16.69;54.28;95055.34;10360319;28;20204;-24
2022/04/23 00:07:42;;;;;;;2.13;1.92;;;;;;;16.69;54.06;95057.84;10353982;28;20027;-23
2022/04/23 00:12:46;;;;;;;2.00;1.50;;;;;;;16.69;54.13;95058.66;10409920;28;20048;-23
2022/04/23 00:17:47;;;;;;;2.55;2.35;;;;;;;16.81;54.24;95063.50;10350172;28;20547;-23
2022/04/23 00:22:47;;;;;;;3.25;2.60;;;;;;;16.89;54.42;95067.53;10330262;28;20038;-23
2022/04/23 00:27:49;;;;;;;3.33;2.33;;;;;;;16.88;54.28;95065.88;10331403;28;20030;-23
2022/04/23 00:32:49;;;;;;;1.92;1.48;;;;;;;16.77;53.98;95064.41;10330827;28;20035;-24
2022/04/23 00:37:50;;;;;;;1.77;1.67;;;;;;;16.66;54.13;95057.91;10347453;28;20049;-23
2022/04/23 00:42:56;;;;;;;2.72;1.50;;;;;;;16.72;54.22;95073.78;10371245;28;20030;-23
2022/04/23 00:47:56;;;;;;;1.10;1.00;;;;;;;16.69;54.19;95071.31;10346155;28;20034;-23
2022/04/23 00:53:01;;;;;;;1.40;1.30;;;;;;;16.70;54.44;95067.09;10330726;28;20042;-23
2022/04/23 00:58:02;;;;;;;2.95;1.15;;;;;;;16.69;54.46;95073.84;10330034;28;20551;-23
2022/04/23 01:03:02;;;;;;;1.20;1.00;;;;;;;16.70;54.37;95065.38;10342725;28;20523;-23
2022/04/23 01:08:04;;;;;;;1.20;1.10;;;;;;;16.69;54.30;95066.25;10370269;28;20072;-23
2022/04/23 01:13:06;;;;;;;2.20;1.02;;;;;;;16.71;54.27;95067.03;10410709;28;20256;-24
2022/04/23 01:18:06;;;;;;;1.90;1.23;;;;;;;16.71;54.54;95051.88;10341462;28;20045;-23
2022/04/23 01:23:07;;;;;;;1.33;1.20;;;;;;;16.69;54.76;95058.66;10347829;28;20040;-23
2022/04/23 01:28:08;;;;;;;3.35;2.08;;;;;;;16.79;54.86;95060.16;10369815;28;20318;-23
2022/04/23 01:33:08;;;;;;;5.43;2.22;;;;;;;16.94;54.59;95054.78;10333807;28;20121;-23
2022/04/23 01:38:09;;;;;;;1.53;1.43;;;;;;;16.88;54.28;95057.44;10328126;28;20030;-23
2022/04/23 01:43:10;;;;;;;1.17;1.00;;;;;;;16.77;54.29;95061.06;10328341;28;20069;-23
2022/04/23 01:48:11;;;;;;;2.20;0.95;;;;;;;16.74;54.49;95057.72;10328351;28;20030;-24
2022/04/23 01:53:11;;;;;;;1.38;1.25;;;;;;;16.72;54.61;95053.56;10347253;28;20181;-23
2022/04/23 01:58:11;;;;;;;1.37;1.27;;;;;;;16.71;54.38;95064.53;10368347;28;20408;-23
2022/04/23 02:03:12;;;;;;;1.47;1.20;;;;;;;16.72;54.63;95067.91;10350262;28;20189;-23
2022/04/23 02:08:16;;;;;;;1.03;0.93;;;;;;;16.72;54.51;95063.69;10352590;28;20755;-23
2022/04/23 02:13:17;;;;;;;1.38;0.90;;;;;;;16.73;54.47;95067.88;10408712;28;20124;-23
2022/04/23 02:18:17;;;;;;;1.53;1.13;;;;;;;16.65;54.48;95048.66;10329312;28;20038;-23
2022/04/23 02:23:18;;;;;;;1.53;1.10;;;;;;;16.71;54.33;95056.94;10327140;28;20042;-23
2022/04/23 02:28:18;;;;;;;1.50;1.17;;;;;;;16.73;54.51;95056.91;10327408;28;20624;-23
2022/04/23 02:33:19;;;;;;;2.07;1.90;;;;;;;16.75;54.77;95059.38;10327527;28;20500;-23
2022/04/23 02:38:20;;;;;;;2.17;1.98;;;;;;;16.92;54.79;95056.53;10326731;28;20038;-23
2022/04/23 02:43:21;;;;;;;2.23;1.80;;;;;;;16.96;54.52;95055.59;10326901;28;20046;-23
2022/04/23 02:48:22;;;;;;;1.70;1.17;;;;;;;16.87;54.61;95045.66;10331358;28;20065;-23
2022/04/23 02:53:22;;;;;;;1.10;0.97;;;;;;;16.79;54.02;95035.72;10335720;28;20038;-23
2022/04/23 02:58:25;;;;;;;0.80;0.80;;;;;;;16.70;54.28;95035.06;10335385;28;20060;-23
2022/04/23 03:03:26;;;;;;;0.85;0.85;;;;;;;16.74;54.51;95031.63;10357277;28;20050;-23
2022/04/23 03:08:26;;;;;;;1.15;1.05;;;;;;;16.75;54.16;95030.78;10378675;28;20025;-23
2022/04/23 03:13:27;;;;;;;1.05;0.93;;;;;;;16.74;54.39;95031.63;10415620;28;20051;-23
2022/04/23 03:18:27;;;;;;;1.07;0.87;;;;;;;16.65;54.59;95011.59;10362862;28;20042;-23
2022/04/23 03:23:27;;;;;;;1.53;1.10;;;;;;;16.72;54.53;95030.84;10334125;28;20287;-23
2022/04/23 03:28:28;;;;;;;1.10;1.00;;;;;;;16.65;54.40;95019.19;10333595;28;20760;-23
2022/04/23 03:33:29;;;;;;;1.17;0.88;;;;;;;16.74;54.25;95034.16;10333340;28;20072;-23
2022/04/23 03:38:31;;;;;;;1.15;0.90;;;;;;;16.73;54.37;95024.91;10355044;28;20041;-22
2022/04/23 03:43:32;;;;;;;2.50;2.30;;;;;;;16.84;55.26;95033.09;10373681;28;20060;-23
2022/04/23 03:48:33;;;;;;;1.70;1.60;;;;;;;16.94;54.97;95032.03;10344020;28;20030;-23
2022/04/23 03:53:34;;;;;;;2.05;1.40;;;;;;;16.95;54.57;95029.50;10332811;28;20121;-22
2022/04/23 03:58:35;;;;;;;1.25;1.15;;;;;;;16.86;54.25;95026.31;10332840;28;20112;-24
2022/04/23 04:03:36;;;;;;;1.95;1.38;;;;;;;16.82;54.14;95019.69;10355878;28;20500;-23
2022/04/23 04:08:36;;;;;;;1.00;0.97;;;;;;;16.80;54.22;95023.91;10360636;28;20025;-23
2022/04/23 04:13:36;;;;;;;1.08;1.02;;;;;;;16.79;54.29;95024.78;10413333;28;20426;-23
2022/04/23 04:18:37;;;;;;;1.43;1.10;;;;;;;16.77;54.31;95012.19;10336646;28;20137;-23
2022/04/23 04:23:39;;;;;;;1.20;1.10;;;;;;;16.76;54.31;95009.69;10332003;28;20034;-23
2022/04/23 04:28:40;;;;;;;1.05;0.95;;;;;;;16.76;54.12;95009.69;10331336;28;20157;-23
2022/04/23 04:33:40;;;;;;;0.70;0.70;;;;;;;16.75;54.51;95002.97;10330898;28;20149;-23
2022/04/23 04:38:40;;;;;;;1.20;1.10;;;;;;;16.77;54.68;95006.28;10330813;28;20066;-24
2022/04/23 04:43:41;;;;;;;0.80;0.80;;;;;;;16.77;54.30;95008.81;10331043;28;20030;-22
2022/04/23 04:48:42;;;;;;;1.05;0.85;;;;;;;16.76;54.32;95004.63;10367736;28;20037;-23
2022/04/23 04:53:42;;;;;;;3.13;2.63;;;;;;;16.92;55.43;94993.34;10345660;28;20060;-23
2022/04/23 04:58:43;;;;;;;1.93;1.57;;;;;;;16.98;54.77;95000.81;10330191;28;20192;-23
2022/04/23 05:03:44;;;;;;;1.00;1.00;;;;;;;16.90;54.63;95000.13;10347879;28;20546;-23
2022/04/23 05:08:44;;;;;;;1.20;1.10;;;;;;;16.86;54.04;95006.09;10358122;28;20080;-23
2022/04/23 05:13:45;;;;;;;1.20;1.10;;;;;;;16.82;54.03;95000.28;10408100;28;20041;-23
2022/04/23 05:18:45;;;;;;;0.90;0.73;;;;;;;16.80;54.35;95001.16;10351729;28;20293;-23
2022/04/23 05:23:46;;;;;;;1.53;1.43;;;;;;;16.82;54.28;95007.03;10368691;28;20030;-23
2022/04/23 05:28:46;;;;;;;0.98;0.93;;;;;;;16.81;54.22;95001.13;10369430;28;20112;-23
2022/04/23 05:33:46;;;;;;;0.87;0.87;;;;;;;16.82;54.27;95004.50;10336858;28;20044;-23
2022/04/23 05:38:47;;;;;;;0.90;0.90;;;;;;;16.82;54.60;95014.63;10353165;28;20033;-23
2022/04/23 05:43:47;;;;;;;1.10;1.00;;;;;;;16.82;54.50;95014.63;10368290;28;20103;-25
2022/04/23 05:48:47;;;;;;;1.55;1.20;;;;;;;16.80;54.26;95019.69;10328808;28;20054;-23
2022/04/23 05:53:48;;;;;;;1.03;0.93;;;;;;;16.81;53.90;95018.84;10352650;28;20068;-24
2022/04/23 05:58:48;;;;;;;2.37;1.47;;;;;;;16.87;55.23;95022.91;10367761;28;20289;-23
2022/04/23 06:03:48;;;;;;;1.60;1.50;;;;;;;16.98;55.02;95031.94;10366271;28;20030;-23
2022/04/23 06:08:49;;;;;;;1.87;1.50;;;;;;;17.00;55.14;95044.56;10367844;28;20030;-23
2022/04/23 06:13:49;;;;;;;0.98;0.85;;;;;;;16.95;54.33;95046.34;10367067;28;20056;-23
2022/04/23 06:18:50;;;;;;;0.93;0.83;;;;;;;16.91;54.45;95044.75;10368145;28;20099;-23
2022/04/23 06:23:50;;;;;;;1.10;1.00;;;;;;;16.89;54.37;95056.59;10342297;28;20030;-23
2022/04/23 06:28:51;;;;;;;0.93;0.80;;;;;;;16.87;54.31;95059.16;10327472;28;20526;-23
2022/04/23 06:33:51;;;;;;;0.90;0.77;;;;;;;16.88;54.14;95075.13;10342851;28;20041;-24
2022/04/23 06:38:53;;;;;;;1.37;1.10;;;;;;;16.87;54.16;95076.00;10341993;28;20093;-23
2022/04/23 06:43:53;;;;;;;1.35;1.25;;;;;;;16.87;54.55;95086.09;10346603;28;20069;-23
2022/04/23 06:48:53;;;;;;;5.97;1.20;;;;;;;16.88;55.54;95085.25;10328803;28;20232;-23
2022/04/23 06:53:54;;;;;;;3.42;1.30;;;;;;;16.90;54.54;95088.59;10348152;28;20528;-24
2022/04/23 06:58:54;;;;;;;2.73;1.10;;;;;;;17.00;54.59;95085.00;10361967;28;20030;-23
2022/04/23 07:03:54;;;;;;;4.23;1.40;;;;;;;17.04;54.32;95092.50;10361368;28;20109;-22
2022/04/23 07:08:55;;;;;;;2.80;1.00;;;;;;;16.98;54.39;95091.81;10363186;28;20026;-23
2022/04/23 07:13:56;;;;;;;7.60;5.90;;;;;;;16.07;55.45;95099.34;10363395;28;20045;-23
2022/04/23 07:18:56;;;;;;;15.98;5.82;;;;;;;16.74;54.54;95102.38;10350604;28;20803;-24
2022/04/23 07:24:10;;;;;;;8.03;5.10;;;;;;;16.87;53.90;95101.28;10355804;28;20037;-23
2022/04/23 07:29:10;;;;;;;9.52;5.43;;;;;;;16.98;54.13;95107.78;10365660;28;20277;-22
2022/04/23 07:39:30;;;;;;;10.05;6.03;;;;;;;16.98;54.82;95101.91;10333023;28;20038;-23
2022/04/23 07:44:30;;;;;;;12.73;6.72;;;;;;;17.00;55.44;95106.06;10342895;28;20049;-24
2022/04/23 07:49:31;;;;;;;14.67;6.97;;;;;;;17.07;55.23;95102.53;10373114;28;20140;-23
2022/04/23 07:54:31;;;;;;;10.18;6.70;;;;;;;17.05;55.04;95100.91;10369139;28;20456;-24
2022/04/23 07:59:32;;;;;;;8.82;6.70;;;;;;;16.98;54.90;95096.84;10363544;28;20126;-23
2022/04/23 08:04:32;;;;;;;6.23;4.53;;;;;;;17.06;54.20;95095.00;10356188;28;20252;-23
2022/04/23 08:09:39;;;;;;;6.80;4.20;;;;;;;17.09;54.34;95084.81;10372871;28;20683;-22
2022/04/23 08:14:39;;;;;;;8.27;5.25;;;;;;;17.16;54.58;95097.28;10370028;28;20038;-23
2022/04/23 08:19:40;;;;;;;11.90;4.13;;;;;;;17.22;54.58;95106.44;10331210;28;20042;-23
2022/04/23 08:24:40;;;;;;;8.37;4.03;;;;;;;17.14;54.54;95098.22;10331697;28;20489;-22
2022/04/23 08:34:59;;;;;;;9.15;3.88;;;;;;;17.18;53.95;95103.19;10330839;28;20054;-25
2022/04/23 08:40:00;;;;;;;11.83;4.17;;;;;;;17.20;54.17;95115.75;10331203;28;20038;-23
2022/04/23 08:45:01;;;;;;;12.80;4.35;;;;;;;17.23;53.99;95123.31;10364538;28;20034;-23
2022/04/23 08:50:04;;;;;;;9.07;4.43;;;;;;;17.29;54.07;95124.00;10358302;28;20023;-22
2022/04/23 08:55:06;;;;;;;9.75;5.60;;;;;;;17.15;53.81;95125.97;10328523;28;20320;-24
2022/04/23 09:00:08;;;;;;;8.98;4.40;;;;;;;17.16;54.38;95121.75;10329056;28;20034;-23
2022/04/23 09:05:14;;;;;;;7.75;4.32;;;;;;;17.17;54.18;95125.94;10359637;28;20037;-23
2022/04/23 09:10:15;;;;;;;6.65;4.15;;;;;;;17.18;54.38;95120.03;10371328;28;20037;-23
2022/04/23 09:25:57;;;;;;;6.75;3.90;;;;;;;17.25;54.50;95124.09;10369903;28;20420;-24
2022/04/23 09:30:59;;;;;;;6.30;3.80;;;;;;;17.23;54.33;95124.13;10356676;28;20037;-23
2022/04/23 09:36:04;;;;;;;4.13;3.20;;;;;;;17.21;54.83;95115.75;10328505;28;21493;-22
2022/04/23 09:41:17;;;;;;;10.00;3.72;;;;;;;17.16;54.38;95106.59;10328237;28;20030;-23
2022/04/23 09:46:17;;;;;;;4.95;3.70;;;;;;;17.21;54.45;95104.78;10335484;28;20036;-22
2022/04/23 09:51:24;;;;;;;4.93;3.63;;;;;;;17.23;54.45;95115.72;10363518;28;20388;-24
2022/04/23 09:56:25;;;;;;;3.70;3.37;;;;;;;17.28;55.84;95111.38;10327896;28;20053;-23
2022/04/23 10:01:26;;;;;;;8.95;3.95;;;;;;;17.27;54.75;95115.63;10343544;28;20464;-23
2022/04/23 10:06:27;;;;;;;4.38;3.17;;;;;;;17.26;54.62;95105.53;10361916;28;20026;-24
2022/04/23 10:11:29;;;;;;;4.10;3.72;;;;;;;17.22;54.52;95102.22;10385814;28;20087;-23
2022/04/23 10:16:31;;;;;;;6.07;3.65;;;;;;;17.23;54.51;95103.91;10381678;28;20415;-23
2022/04/23 10:21:56;;;;;;;3.38;3.08;;;;;;;17.23;54.91;95103.06;10360593;28;20440;-23
2022/04/23 10:27:07;;;;;;;3.00;2.75;;;;;;;17.24;54.82;95120.72;10326795;28;20042;-23
2022/04/23 10:32:11;;;;;;;6.07;3.47;;;;;;;17.30;57.20;95119.75;10339356;28;20072;-23
2022/04/23 10:37:22;;;;;;;6.35;3.50;;;;;;;17.31;55.44;95117.22;10355417;28;20041;-23
2022/04/23 10:42:24;;;;;;;4.88;3.20;;;;;;;17.28;55.11;95116.44;10326732;28;20039;-22
2022/04/23 10:47:30;;;;;;;3.80;2.92;;;;;;;17.22;55.16;95116.56;10354362;28;20042;-22
2022/04/23 10:52:34;;;;;;;4.33;3.13;;;;;;;17.18;54.76;95109.91;10351776;28;20034;-23
2022/04/23 10:57:34;;;;;;;3.92;2.72;;;;;;;17.24;54.92;95125.78;10326696;28;20054;-24
2022/04/23 11:02:35;;;;;;;3.05;2.75;;;;;;;17.23;54.78;95126.66;10334414;28;20137;-23
2022/04/23 11:12:55;;;;;;;4.53;3.58;;;;;;;17.35;57.76;95128.09;10374567;28;20786;-23
2022/04/23 11:17:58;;;;;;;4.80;3.38;;;;;;;17.29;55.42;95124.00;10353838;28;20099;-22
2022/04/23 11:23:00;;;;;;;5.45;4.10;;;;;;;17.28;54.56;95126.56;10333329;28;20069;-24
2022/04/23 11:28:14;;;;;;;4.13;3.15;;;;;;;17.25;54.41;95126.63;10334170;28;20042;-23
2022/04/23 11:33:14;;;;;;;4.50;3.10;;;;;;;17.26;55.09;95125.75;10345644;28;20030;-23
2022/04/23 11:38:19;;;;;;;4.20;3.10;;;;;;;17.22;54.37;95125.00;10369380;28;20037;-23
2022/04/23 11:43:34;;;;;;;4.43;3.13;;;;;;;17.26;54.93;95133.34;10371836;28;20285;-22
2022/04/23 11:48:47;;;;;;;6.13;3.35;;;;;;;17.20;56.19;95118.28;10372550;28;20042;-23
2022/04/23 11:53:53;;;;;;;10.05;4.25;;;;;;;17.35;56.74;95120.50;10364566;28;20416;-23
2022/04/23 11:58:56;;;;;;;11.10;3.38;;;;;;;17.32;55.57;95123.13;10392621;28;20041;-22
2022/04/23 12:03:58;;;;;;;5.20;3.22;;;;;;;17.27;54.61;95129.94;10381184;28;20444;-23
2022/04/23 12:09:08;;;;;;;14.88;10.68;;;;;;;17.18;54.92;95140.25;10370427;28;20683;-22
2022/04/23 12:14:09;;;;;;;8.48;4.63;;;;;;;17.21;54.63;95138.50;10364253;28;20113;-23
2022/04/23 12:19:13;;;;;;;20.52;11.15;;;;;;;17.13;54.73;95131.91;10367635;28;20042;-22
2022/04/23 12:24:33;;;;;;;5.32;4.40;;;;;;;17.13;54.88;95135.28;10363027;28;20100;-21
2022/04/23 12:45:39;;;;;;;16.20;10.98;;;;;;;17.11;55.18;95118.47;10363419;28;20030;-23
2022/04/23 12:50:40;;;;;;;9.55;5.00;;;;;;;17.13;54.81;95106.63;10349658;28;20073;-26
2022/04/23 12:55:50;;;;;;;22.80;12.88;;;;;;;17.13;54.95;95106.63;10332635;28;20612;-23
2022/04/23 13:00:51;;;;;;;12.52;4.93;;;;;;;17.16;54.46;95109.13;10374944;28;20087;-22
2022/04/23 13:05:52;;;;;;;15.43;9.13;;;;;;;17.13;54.70;95102.44;10373922;28;20038;-23
2022/04/23 13:10:52;;;;;;;25.77;7.30;;;;;;;17.10;55.53;95081.44;10370721;28;20021;-22
2022/04/23 13:15:52;;;;;;;21.17;11.13;;;;;;;17.16;54.68;95087.19;10362497;28;20042;-23
2022/04/23 13:20:53;;;;;;;25.20;14.37;;;;;;;17.19;55.88;95071.13;10365419;28;20469;-23
2022/04/23 13:25:57;;;;;;;21.47;8.40;;;;;;;17.26;56.87;95062.53;10328632;28;20089;-22
2022/04/23 13:30:57;;;;;;;7.45;4.70;;;;;;;17.23;54.86;95052.50;10329290;28;20042;-22
2022/04/23 13:35:58;;;;;;;7.18;3.88;;;;;;;17.20;54.65;95047.50;10328962;28;20046;-22
2022/04/23 13:40:58;;;;;;;9.10;3.73;;;;;;;17.18;54.80;95037.44;10329433;28;20417;-22
2022/04/23 13:45:58;;;;;;;7.80;4.03;;;;;;;17.18;54.53;95029.00;10328457;28;20070;-22
2022/04/23 13:50:59;;;;;;;9.73;5.53;;;;;;;17.13;54.85;95015.63;10327086;28;20507;-24
2022/04/23 13:55:59;;;;;;;5.20;4.10;;;;;;;17.12;54.75;95009.75;10343284;28;20293;-23
2022/04/23 14:01:00;;;;;;;19.70;12.27;;;;;;;17.15;54.61;95008.84;10369507;28;20034;-23
2022/04/23 14:11:19;;;;;;;13.75;7.90;;;;;;;17.31;56.38;94995.00;10397812;28;20273;-23
2022/04/23 14:16:19;;;;;;;6.83;4.27;;;;;;;17.24;54.51;94985.88;10384744;28;20032;-23
2022/04/23 14:21:20;;;;;;;4.47;3.83;;;;;;;17.23;54.62;94976.63;10379094;28;20042;-23
2022/04/23 14:26:21;;;;;;;9.10;4.05;;;;;;;17.13;54.40;94957.47;10382895;28;20065;-23
2022/04/23 14:31:22;;;;;;;7.25;4.10;;;;;;;17.21;54.65;94970.75;10379953;28;20026;-23
2022/04/23 14:36:22;;;;;;;5.20;4.00;;;;;;;17.17;54.57;94956.53;10378098;28;20045;-23
2022/04/23 14:41:23;;;;;;;10.23;4.18;;;;;;;17.12;54.90;94968.44;10363299;28;20710;-24
2022/04/23 14:46:23;;;;;;;6.15;3.75;;;;;;;17.16;54.76;94955.69;10368084;28;20041;-23
2022/04/23 14:56:44;;;;;;;13.05;6.20;;;;;;;17.34;56.16;94965.38;10398167;28;20033;-22
2022/04/23 15:01:46;;;;;;;6.93;4.60;;;;;;;17.31;55.48;94965.47;10372693;28;20044;-23
2022/04/23 15:06:47;;;;;;;8.85;3.92;;;;;;;17.23;55.05;94958.94;10369013;28;20034;-23
2022/04/23 15:11:48;;;;;;;8.10;3.60;;;;;;;17.19;54.54;94958.19;10366791;28;20068;-23
2022/04/23 15:16:48;;;;;;;7.63;3.73;;;;;;;17.18;54.88;94948.09;10367597;28;20026;-23
2022/04/23 15:21:48;;;;;;;4.37;3.03;;;;;;;17.18;54.79;94951.47;10392539;28;20351;-23
2022/04/23 15:26:50;;;;;;;7.77;4.20;;;;;;;17.14;55.16;94939.75;10389018;28;20109;-22
2022/04/23 15:31:51;;;;;;;7.00;3.83;;;;;;;17.15;54.95;94943.94;10389348;28;20449;-22
2022/04/23 15:36:51;;;;;;;5.60;3.20;;;;;;;17.15;54.84;94938.88;10395773;28;20061;-22
2022/04/23 15:41:51;;;;;;;17.50;5.97;;;;;;;17.29;57.46;94936.00;10397857;28;20037;-23
2022/04/23 15:46:52;;;;;;;9.03;5.57;;;;;;;17.34;57.32;94917.31;10374409;28;20520;-24
2022/04/23 15:51:52;;;;;;;9.60;7.20;;;;;;;17.20;56.33;94904.22;10384510;28;20468;-23
2022/04/23 15:56:54;;;;;;;6.37;4.10;;;;;;;17.19;55.14;94894.97;10364226;28;20025;-23
2022/04/23 16:01:55;;;;;;;4.38;3.25;;;;;;;17.16;55.02;94889.97;10387804;28;20088;-23
2022/04/23 16:06:55;;;;;;;9.70;3.80;;;;;;;17.15;54.87;94900.94;10387441;28;20040;-23
2022/04/23 16:11:58;;;;;;;6.40;4.10;;;;;;;17.15;55.06;94892.53;10388587;28;20029;-24
2022/04/23 16:16:58;;;;;;;5.90;4.05;;;;;;;17.05;55.03;94866.63;10389431;28;20293;-23
2022/04/23 16:21:59;;;;;;;7.33;3.60;;;;;;;17.10;54.95;94869.06;10355923;28;20555;-23
2022/04/23 16:26:59;;;;;;;13.67;5.80;;;;;;;17.25;56.57;94878.81;10332395;28;20042;-23
2022/04/23 16:31:59;;;;;;;20.48;7.82;;;;;;;17.32;57.48;94871.03;10330721;28;20030;-23
2022/04/23 16:47:37;;;;;;;5.90;3.50;;;;;;;17.17;54.82;94860.47;10347482;28;20127;-23
2022/04/23 16:52:38;;;;;;;5.57;3.13;;;;;;;17.14;54.65;94858.03;10330485;28;20335;-23
2022/04/23 16:57:38;;;;;;;4.63;3.35;;;;;;;17.06;54.94;94827.84;10331098;28;20030;-23
2022/04/23 17:02:39;;;;;;;6.27;2.97;;;;;;;17.12;54.90;94832.75;10339265;28;20578;-23
2022/04/23 17:07:39;;;;;;;4.57;3.00;;;;;;;17.12;54.94;94816.75;10353999;28;20045;-23
2022/04/23 17:12:40;;;;;;;5.37;3.60;;;;;;;17.11;54.81;94815.94;10407351;28;20042;-23
2022/04/23 17:17:40;;;;;;;10.07;6.25;;;;;;;17.22;56.84;94810.59;10372575;28;20038;-23
2022/04/23 17:22:41;;;;;;;8.03;5.70;;;;;;;17.32;57.23;94799.41;10344800;28;20072;-23
2022/04/23 17:27:42;;;;;;;9.02;4.57;;;;;;;17.26;55.83;94792.78;10370325;28;20281;-23
2022/04/23 17:32:44;;;;;;;4.88;3.53;;;;;;;17.20;55.15;94779.47;10333534;28;20032;-24
2022/04/23 17:37:44;;;;;;;8.68;3.10;;;;;;;17.15;55.31;94761.06;10328050;28;20118;-21
2022/04/23 17:42:45;;;;;;;3.88;3.13;;;;;;;17.12;55.12;94761.13;10327888;28;20037;-23
2022/04/23 17:47:45;;;;;;;4.75;3.25;;;;;;;17.10;54.65;94753.63;10328187;28;20125;-23
2022/04/23 17:52:45;;;;;;;4.40;3.00;;;;;;;17.09;54.65;94756.97;10343760;28;20121;-23
2022/04/23 17:57:46;;;;;;;3.80;3.10;;;;;;;17.09;54.84;94762.03;10367796;28;20053;-22
2022/04/23 18:08:06;;;;;;;15.38;5.63;;;;;;;17.13;55.80;94761.09;10333891;28;20513;-23
2022/04/23 18:13:06;;;;;;;11.57;5.57;;;;;;;17.28;56.83;94773.34;10391370;28;20120;-23
2022/04/23 18:18:06;;;;;;;18.37;5.67;;;;;;;17.34;56.09;94769.81;10361363;28;20037;-23
2022/04/23 18:23:07;;;;;;;16.03;4.40;;;;;;;17.22;54.85;94763.38;10360252;28;20434;-21
2022/04/23 18:28:07;;;;;;;14.50;5.82;;;;;;;17.14;55.03;94767.00;10354017;28;20036;-23
2022/04/23 18:33:07;;;;;;;8.77;3.80;;;;;;;17.10;54.26;94761.19;10381132;28;20038;-23
2022/04/23 18:38:08;;;;;;;7.17;3.27;;;;;;;17.14;54.67;94759.41;10358734;28;20037;-22
2022/04/23 18:43:10;;;;;;;7.37;3.50;;;;;;;17.15;54.62;94761.06;10360815;28;20129;-24
2022/04/23 18:48:11;;;;;;;3.50;3.20;;;;;;;17.16;54.54;94752.63;10361484;28;20041;-22
2022/04/23 18:53:11;;;;;;;4.60;3.03;;;;;;;17.13;54.83;94737.50;10356591;28;20526;-23
2022/04/23 18:58:14;;;;;;;5.32;3.00;;;;;;;17.18;54.46;94745.81;10388107;28;20108;-22
2022/04/23 19:03:14;;;;;;;10.50;5.75;;;;;;;17.28;56.72;94730.38;10354378;28;20044;-22
2022/04/23 19:08:14;;;;;;;9.43;5.77;;;;;;;17.35;56.40;94731.03;10362376;28;20029;-23
2022/04/23 19:13:15;;;;;;;4.70;3.63;;;;;;;17.30;54.93;94725.25;10362208;28;20048;-22
2022/04/23 19:18:16;;;;;;;3.45;2.72;;;;;;;17.24;54.46;94730.50;10352594;28;20511;-22
2022/04/23 19:28:35;;;;;;;3.55;2.85;;;;;;;17.19;54.33;94722.19;10351049;28;20069;-22
2022/04/23 19:33:36;;;;;;;3.37;3.07;;;;;;;17.17;54.54;94722.22;10369053;28;20030;-23
2022/04/23 19:38:36;;;;;;;3.30;3.03;;;;;;;17.17;54.27;94719.69;10368905;28;20045;-22
2022/04/23 19:43:37;;;;;;;3.97;3.08;;;;;;;17.17;54.67;94721.41;10352908;28;20041;-23
2022/04/23 19:48:37;;;;;;;15.48;3.08;;;;;;;17.18;54.43;94718.00;10368624;28;20030;-23
2022/04/23 19:53:38;;;;;;;3.47;3.17;;;;;;;17.18;54.58;94716.31;10345227;28;20555;-22
2022/04/23 19:58:41;;;;;;;5.00;4.50;;;;;;;17.28;56.43;94707.59;10356620;28;20091;-23
2022/04/23 20:03:41;;;;;;;6.18;4.43;;;;;;;17.35;56.82;94709.09;10353926;28;20461;-23
2022/04/23 20:08:41;;;;;;;7.63;3.93;;;;;;;17.30;55.29;94705.00;10383759;28;20036;-23
2022/04/23 20:13:42;;;;;;;4.67;2.97;;;;;;;17.23;54.54;94690.91;10399470;28;20034;-23
2022/04/23 20:18:44;;;;;;;3.28;2.97;;;;;;;17.22;54.47;94686.69;10328046;28;20847;-24
2022/04/23 20:23:44;;;;;;;3.95;2.83;;;;;;;17.22;54.64;94681.63;10326594;28;20073;-23
2022/04/23 20:34:05;;;;;;;3.40;2.70;;;;;;;17.20;54.73;94658.09;10334893;28;20035;-22
2022/04/23 20:39:06;;;;;;;4.28;3.40;;;;;;;17.18;55.16;94649.75;10326118;28;20030;-23
2022/04/23 20:44:06;;;;;;;3.70;3.17;;;;;;;17.12;54.37;94622.09;10372716;28;20033;-22
2022/04/23 20:49:12;;;;;;;5.35;3.03;;;;;;;17.20;54.48;94642.94;10380043;28;20535;-23
2022/04/23 20:54:12;;;;;;;6.75;5.25;;;;;;;17.29;57.41;94630.03;10337951;28;20045;-22
2022/04/23 20:59:13;;;;;;;10.43;5.07;;;;;;;17.35;58.19;94619.75;10357890;28;20508;-22
2022/04/23 21:04:13;;;;;;;5.63;3.67;;;;;;;17.29;55.15;94617.38;10377071;28;20116;-23
2022/04/23 21:09:14;;;;;;;5.00;2.87;;;;;;;17.26;54.54;94627.59;10368230;28;20026;-23
2022/04/23 21:14:14;;;;;;;3.70;3.33;;;;;;;17.23;54.78;94612.53;10370359;28;20491;-22
2022/04/23 21:19:14;;;;;;;6.13;3.20;;;;;;;17.23;54.54;94612.53;10367802;28;20544;-23
2022/04/23 21:24:15;;;;;;;5.23;3.30;;;;;;;17.16;54.91;94595.88;10370236;28;20034;-22
2022/04/23 21:29:15;;;;;;;3.33;2.87;;;;;;;17.23;54.84;94599.88;10363795;28;20633;-22
2022/04/23 21:34:16;;;;;;;4.90;3.38;;;;;;;17.20;54.76;94605.00;10363815;28;20522;-23
2022/04/23 21:39:16;;;;;;;3.77;2.73;;;;;;;17.22;54.67;94615.91;10337637;28;20039;-23
2022/04/23 21:49:35;;;;;;;8.80;5.32;;;;;;;17.31;58.38;94591.19;10332902;28;20026;-22
2022/04/23 21:54:38;;;;;;;5.73;4.43;;;;;;;17.34;58.49;94585.22;10333165;28;20049;-23
2022/04/23 21:59:38;;;;;;;8.48;4.82;;;;;;;17.30;56.72;94568.47;10326115;28;20089;-24
2022/04/23 22:04:43;;;;;;;4.50;2.87;;;;;;;17.18;54.97;94568.84;10353434;28;20377;-23
2022/04/23 22:09:45;;;;;;;4.45;2.90;;;;;;;17.22;54.80;94571.22;10382432;28;20116;-23
2022/04/23 22:14:46;;;;;;;4.10;3.13;;;;;;;17.21;54.81;94566.22;10391273;28;20148;-24
2022/04/23 22:19:46;;;;;;;4.20;2.70;;;;;;;17.21;54.89;94573.78;10327588;28;20053;-23
2022/04/23 22:24:46;;;;;;;4.57;3.10;;;;;;;17.19;54.71;94576.38;10327440;28;20311;-24
2022/04/23 22:29:47;;;;;;;3.22;2.90;;;;;;;17.18;54.73;94589.06;10327843;28;20154;-24
2022/04/23 22:34:47;;;;;;;4.67;3.03;;;;;;;17.19;54.98;94598.28;10327560;28;20113;-23
2022/04/23 22:39:48;;;;;;;2.80;2.60;;;;;;;17.18;54.61;94594.13;10327663;28;20046;-23
2022/04/23 22:44:48;;;;;;;8.17;4.10;;;;;;;17.27;57.36;94598.91;10327404;28;20894;-22
2022/04/23 22:49:48;;;;;;;11.27;5.60;;;;;;;17.33;58.35;94593.69;10326958;28;20212;-22
2022/04/23 22:54:49;;;;;;;5.67;3.63;;;;;;;17.33;57.18;94588.63;10326144;28;20289;-23
2022/04/23 22:59:49;;;;;;;5.00;3.40;;;;;;;17.25;55.21;94606.53;10326885;28;20049;-22
2022/04/23 23:04:49;;;;;;;3.77;3.03;;;;;;;17.19;54.91;94599.13;10356865;28;20181;-22
2022/04/23 23:09:51;;;;;;;4.38;2.63;;;;;;;17.20;55.28;94607.53;10389274;28;20029;-23
2022/04/23 23:14:52;;;;;;;2.83;2.53;;;;;;;17.20;54.95;94608.38;10388582;28;20041;-23
2022/04/23 23:19:52;;;;;;;2.87;2.53;;;;;;;17.19;54.77;94605.88;10334539;28;20034;-23
2022/04/23 23:24:53;;;;;;;4.17;2.70;;;;;;;17.16;54.98;94601.72;10366263;28;20714;-22
2022/04/23 23:29:53;;;;;;;2.97;2.50;;;;;;;17.20;55.02;94622.72;10374631;28;20029;-22
2022/04/23 23:34:54;;;;;;;3.20;2.70;;;;;;;17.10;54.57;94622.16;10333663;28;20129;-23
2022/04/23 23:39:54;;;;;;;3.63;2.73;;;;;;;17.18;54.75;94644.69;10332971;28;20113;-22
2022/04/23 23:44:55;;;;;;;4.30;3.87;;;;;;;17.28;57.55;94656.19;10332652;28;20038;-22
2022/04/23 23:49:55;;;;;;;5.00;3.92;;;;;;;17.24;57.45;94654.63;10333537;28;20054;-22
2022/04/23 23:54:55;;;;;;;4.00;3.00;;;;;;;17.29;55.71;94662.91;10332988;28;20506;-22
2022/04/23 23:59:56;;;;;;;2.70;2.50;;;;;;;17.24;55.24;94682.44;10332384;28;20035;-22
